Time;durP1;ratioP1;P1;durP2;ratioP2;P2;SDS_P1;SDS_P2;PMS_P1;PMS_P2;Temp;Humidity;BMP_temperature;BMP_pressure;BME280_temperature;BME280_humidity;BME280_pressure;Samples;Min_cycle;Max_cycle;Signal;HPM_P1;HPM_P2
2023/06/11 00:08:42;;;;;;;13.10;11.70;;;;;;;26.43;39.98;100823.44;20990653;28;20118;-57
2023/06/11 00:18:43;;;;;;;11.82;10.63;;;;;;;26.43;39.97;100831.88;20990534;28;20036;-58
2023/06/11 00:28:45;;;;;;;12.65;11.38;;;;;;;26.43;39.94;100829.06;20990231;28;20549;-58
2023/06/11 00:38:48;;;;;;;12.43;11.23;;;;;;;26.35;39.75;100822.28;20990040;28;20047;-58
2023/06/11 00:48:51;;;;;;;12.50;11.20;;;;;;;26.44;39.78;100839.19;20989911;28;20040;-58
2023/06/11 00:58:53;;;;;;;11.95;10.85;;;;;;;26.45;39.50;100852.06;21003979;28;20040;-57
2023/06/11 01:08:57;;;;;;;12.80;11.50;;;;;;;26.44;39.35;100858.81;21002995;28;20052;-59
2023/06/11 01:19:19;;;;;;;12.00;10.90;;;;;;;26.43;39.41;100854.31;21002821;28;20472;-59
2023/06/11 01:29:22;;;;;;;11.82;10.68;;;;;;;26.47;38.99;100859.00;21001593;28;20041;-56
2023/06/11 01:39:25;;;;;;;11.80;10.70;;;;;;;26.47;39.13;100872.19;21001013;28;20036;-58
2023/06/11 01:49:26;;;;;;;12.10;10.90;;;;;;;26.43;39.00;100874.81;20999671;28;20442;-58
2023/06/11 01:59:27;;;;;;;11.55;10.35;;;;;;;26.33;39.00;100875.88;20999263;28;20435;-59
2023/06/11 02:09:31;;;;;;;11.52;10.23;;;;;;;26.45;39.07;100903.38;20997954;28;20052;-57
2023/06/11 02:19:33;;;;;;;11.02;9.93;;;;;;;26.49;38.83;100914.81;20997453;28;20036;-56
2023/06/11 02:29:35;;;;;;;11.43;10.23;;;;;;;26.48;39.26;100928.00;20997337;28;20076;-58
2023/06/11 02:39:36;;;;;;;10.77;9.68;;;;;;;26.49;39.13;100949.31;20995903;28;20078;-58
2023/06/11 02:49:38;;;;;;;10.88;9.77;;;;;;;26.49;38.81;100945.69;20995346;28;20036;-57
2023/06/11 02:59:39;;;;;;;10.73;9.73;;;;;;;26.50;39.12;100961.34;20994286;28;20094;-57
2023/06/11 03:09:40;;;;;;;10.00;9.10;;;;;;;26.50;39.26;100962.19;20993727;28;20062;-58
2023/06/11 03:19:42;;;;;;;9.70;8.80;;;;;;;26.51;39.07;100963.84;20992519;28;20021;-59
2023/06/11 03:29:43;;;;;;;9.82;8.82;;;;;;;26.52;39.14;100975.88;20993049;28;20110;-56
2023/06/11 03:39:45;;;;;;;10.40;9.30;;;;;;;26.53;39.14;100986.00;20992111;28;20040;-58
2023/06/11 03:49:46;;;;;;;9.07;8.18;;;;;;;26.54;39.16;100996.88;20991926;28;20048;-59
2023/06/11 03:59:50;;;;;;;9.40;8.50;;;;;;;26.51;39.21;100997.50;20991455;28;20036;-57
2023/06/11 04:09:54;;;;;;;9.50;8.50;;;;;;;26.55;39.16;100989.28;20991038;28;20048;-57
2023/06/11 04:19:55;;;;;;;9.77;8.73;;;;;;;26.55;38.94;100978.91;20991039;28;20463;-56
2023/06/11 04:29:57;;;;;;;9.52;8.63;;;;;;;26.48;38.92;100970.09;21000209;28;20388;-58
2023/06/11 04:40:08;;;;;;;9.82;8.93;;;;;;;26.50;38.98;100981.81;21005710;28;20071;-57
2023/06/11 04:50:10;;;;;;;10.23;8.52;;;;;;;26.55;38.81;100983.69;21005504;28;20443;-58
2023/06/11 05:00:13;;;;;;;9.35;8.45;;;;;;;26.56;38.90;100979.72;21005254;28;20040;-58
2023/06/11 05:10:15;;;;;;;10.00;9.00;;;;;;;26.55;38.87;100978.06;21004254;28;20044;-57
2023/06/11 05:20:16;;;;;;;9.82;8.57;;;;;;;26.57;38.77;100972.94;21002677;28;20098;-59
2023/06/11 05:30:20;;;;;;;9.15;8.25;;;;;;;26.57;38.52;100973.81;21002386;28;20037;-57
2023/06/11 05:40:22;;;;;;;9.52;8.50;;;;;;;26.56;38.77;100968.50;21000189;28;20040;-58
2023/06/11 05:50:23;;;;;;;10.55;9.43;;;;;;;26.50;38.84;100967.78;21000025;28;20040;-57
2023/06/11 06:00:25;;;;;;;8.98;8.07;;;;;;;26.58;38.62;100985.84;21000095;28;20434;-57
2023/06/11 06:10:27;;;;;;;8.63;7.78;;;;;;;26.58;38.54;100999.91;21001332;28;20090;-58
2023/06/11 06:20:28;;;;;;;9.52;8.55;;;;;;;26.58;38.69;101008.31;20998407;28;20090;-57
2023/06/11 06:30:30;;;;;;;8.90;8.00;;;;;;;26.57;38.85;101001.00;20997009;28;20036;-56
2023/06/11 06:40:32;;;;;;;9.13;8.23;;;;;;;26.58;38.46;101013.94;20996363;28;20037;-56
2023/06/11 06:50:33;;;;;;;9.93;8.95;;;;;;;26.60;38.61;101014.41;20995811;28;20033;-57
2023/06/11 07:00:34;;;;;;;9.90;8.75;;;;;;;26.61;38.39;101013.28;20995067;28;20033;-58
2023/06/11 07:10:36;;;;;;;10.88;8.73;;;;;;;26.61;38.46;101011.28;20994750;28;20037;-57
2023/06/11 07:20:37;;;;;;;10.55;9.35;;;;;;;26.56;38.34;100996.56;20993908;28;20105;-58
2023/06/11 07:30:38;;;;;;;10.05;9.05;;;;;;;26.61;38.62;100997.25;20993976;28;20036;-58
2023/06/11 07:40:40;;;;;;;10.20;9.25;;;;;;;26.61;38.56;101002.03;20993256;28;20090;-57
2023/06/11 07:50:41;;;;;;;10.40;9.40;;;;;;;26.62;38.40;100986.88;20992211;28;20565;-58
2023/06/11 08:00:42;;;;;;;10.20;9.20;;;;;;;26.63;38.45;100999.75;20995374;28;20388;-59
2023/06/11 08:10:45;;;;;;;11.20;9.70;;;;;;;26.59;38.42;100990.31;21008662;28;20125;-58
2023/06/11 08:20:47;;;;;;;10.00;9.05;;;;;;;26.60;38.44;100980.75;21008507;28;20041;-56
2023/06/11 08:30:48;;;;;;;10.98;9.82;;;;;;;26.61;38.42;100973.97;21007827;28;20365;-57
2023/06/11 08:40:53;;;;;;;10.70;9.60;;;;;;;26.62;38.64;100975.66;21006566;28;20094;-57
2023/06/11 08:50:55;;;;;;;10.38;9.27;;;;;;;26.61;38.50;100983.22;21005926;28;20110;-57
2023/06/11 09:00:57;;;;;;;10.93;9.93;;;;;;;26.59;38.46;100984.72;21005084;28;20039;-57
2023/06/11 09:10:58;;;;;;;11.30;10.18;;;;;;;26.61;38.46;100997.25;21004044;28;20480;-57
2023/06/11 09:21:02;;;;;;;11.35;10.23;;;;;;;26.62;38.71;100989.69;21003252;28;20044;-58
2023/06/11 09:31:04;;;;;;;11.10;10.00;;;;;;;26.63;38.48;100996.97;21002709;28;20117;-58
2023/06/11 09:41:08;;;;;;;11.88;10.45;;;;;;;26.63;38.54;101005.38;21001652;28;20106;-58
2023/06/11 09:51:10;;;;;;;11.52;10.43;;;;;;;26.60;38.63;100997.59;21001144;28;20113;-57
2023/06/11 10:01:12;;;;;;;12.38;10.57;;;;;;;26.62;38.66;101014.94;21000170;28;20383;-56
2023/06/11 10:11:13;;;;;;;11.45;10.35;;;;;;;26.61;38.25;101002.03;20999654;28;20049;-56
2023/06/11 10:21:15;;;;;;;11.98;10.40;;;;;;;26.62;38.44;101012.16;20998660;28;20049;-57
2023/06/11 10:31:27;;;;;;;12.05;10.85;;;;;;;26.56;38.59;101019.00;20997403;28;20025;-57
2023/06/11 10:41:29;;;;;;;11.70;10.48;;;;;;;26.56;38.49;101013.41;20997019;28;20040;-57
2023/06/11 10:51:40;;;;;;;11.82;10.63;;;;;;;26.55;38.91;101029.41;20995076;28;20075;-58
2023/06/11 11:01:47;;;;;;;11.60;10.50;;;;;;;26.54;38.39;101026.94;20995533;28;20044;-57
2023/06/11 11:11:52;;;;;;;11.20;10.17;;;;;;;26.58;38.48;101033.56;20994885;28;20060;-59
2023/06/11 11:21:56;;;;;;;11.70;10.60;;;;;;;26.63;38.61;101047.47;20994370;28;20067;-57
2023/06/11 11:31:58;;;;;;;13.15;11.77;;;;;;;26.62;38.59;101057.06;20994517;28;20041;-56
2023/06/11 11:42:00;;;;;;;12.38;11.18;;;;;;;26.63;38.67;101063.50;20992134;28;20053;-57
2023/06/11 11:52:01;;;;;;;12.43;11.13;;;;;;;26.60;38.74;101045.28;20992296;28;20083;-57
2023/06/11 12:02:02;;;;;;;12.00;10.77;;;;;;;26.60;38.53;101036.88;20992099;28;20082;-58
2023/06/11 12:12:07;;;;;;;12.52;11.23;;;;;;;26.63;38.66;101046.66;20991546;28;20079;-58
2023/06/11 12:22:08;;;;;;;12.27;10.98;;;;;;;26.64;38.52;101049.13;20990578;28;20133;-57
2023/06/11 12:32:13;;;;;;;13.30;12.00;;;;;;;26.63;38.40;101055.91;20990639;28;20032;-58
2023/06/11 12:42:15;;;;;;;12.27;11.07;;;;;;;26.64;38.76;101054.75;20990056;28;20040;-58
2023/06/11 12:52:16;;;;;;;12.85;11.63;;;;;;;26.66;38.63;101055.25;21002525;28;20048;-58
2023/06/11 13:02:17;;;;;;;11.30;10.23;;;;;;;26.67;38.67;101059.72;21004182;28;20329;-57
2023/06/11 13:12:20;;;;;;;12.13;10.93;;;;;;;26.66;38.49;101049.63;21004770;28;20040;-56
2023/06/11 13:22:24;;;;;;;11.73;10.63;;;;;;;26.66;38.59;101058.06;21003909;28;20040;-57
2023/06/11 13:32:26;;;;;;;12.15;10.95;;;;;;;26.67;38.70;101051.31;21002263;28;20094;-57
2023/06/11 13:42:27;;;;;;;12.90;11.52;;;;;;;26.68;38.72;101038.09;21001840;28;20116;-58
2023/06/11 13:52:31;;;;;;;12.35;10.73;;;;;;;26.70;38.85;101042.22;21000855;28;20044;-57
2023/06/11 14:02:33;;;;;;;11.43;10.32;;;;;;;26.66;38.50;101029.97;20999994;28;20029;-58
2023/06/11 14:12:37;;;;;;;12.10;10.90;;;;;;;26.71;38.62;101029.88;21000160;28;20082;-59
2023/06/11 14:22:39;;;;;;;12.65;11.35;;;;;;;26.70;38.58;101035.78;20998821;28;20048;-62
2023/06/11 14:32:40;;;;;;;12.20;10.88;;;;;;;26.73;38.84;101030.38;20998340;28;20036;-57
2023/06/11 14:42:42;;;;;;;11.95;10.75;;;;;;;26.70;38.80;101025.41;20996452;28;20053;-55
2023/06/11 14:52:43;;;;;;;11.90;10.70;;;;;;;26.72;38.65;101025.91;20995350;28;20114;-57
2023/06/11 15:02:44;;;;;;;12.90;11.57;;;;;;;26.75;38.77;101022.47;20995454;28;20051;-57
2023/06/11 15:12:46;;;;;;;11.73;10.52;;;;;;;26.74;38.56;101020.81;20994048;28;20044;-59
2023/06/11 15:22:47;;;;;;;12.23;11.00;;;;;;;26.75;38.82;101005.63;20993733;28;20036;-57
2023/06/11 15:32:49;;;;;;;13.13;11.73;;;;;;;26.77;38.62;100988.47;20993992;28;20040;-56
2023/06/11 15:42:50;;;;;;;12.38;11.18;;;;;;;26.75;38.74;100988.78;20993540;28;20052;-58
2023/06/11 15:52:51;;;;;;;11.75;10.65;;;;;;;26.77;38.89;100992.09;20991712;28;20040;-58
2023/06/11 16:02:53;;;;;;;12.35;11.15;;;;;;;26.78;38.74;100979.72;20991880;28;20377;-56
2023/06/11 16:12:54;;;;;;;13.43;12.10;;;;;;;26.63;38.89;100940.81;20991630;28;20430;-58
2023/06/11 16:22:56;;;;;;;13.90;12.50;;;;;;;26.79;39.01;100956.09;20996754;28;20102;-58
2023/06/11 16:32:57;;;;;;;13.23;11.82;;;;;;;26.81;38.95;100939.78;21007508;28;20049;-57
2023/06/11 16:42:58;;;;;;;13.70;12.30;;;;;;;26.78;39.04;100926.38;21006306;28;20040;-59
2023/06/11 16:53:00;;;;;;;15.45;12.52;;;;;;;26.73;39.07;100898.44;21006162;28;20037;-57
2023/06/11 17:03:01;;;;;;;13.38;12.00;;;;;;;26.83;39.08;100906.59;21005203;28;20121;-60
2023/06/11 17:13:03;;;;;;;14.43;13.00;;;;;;;26.86;39.03;100888.28;21004357;28;20057;-59
2023/06/11 17:23:06;;;;;;;14.50;13.00;;;;;;;26.88;39.21;100885.13;21004212;28;20383;-59
2023/06/11 17:33:07;;;;;;;14.48;12.98;;;;;;;26.90;39.22;100857.59;21002186;28;20052;-58
2023/06/11 17:43:10;;;;;;;12.93;11.63;;;;;;;26.85;39.11;100842.53;21002981;28;20040;-57
2023/06/11 17:53:14;;;;;;;14.15;12.75;;;;;;;26.93;39.28;100837.25;21001598;28;20078;-59
2023/06/11 18:03:16;;;;;;;14.40;12.90;;;;;;;26.92;38.99;100828.00;21000620;28;20091;-59
2023/06/11 18:13:17;;;;;;;14.32;12.85;;;;;;;26.96;39.34;100814.16;20999685;28;20032;-57
2023/06/11 18:23:18;;;;;;;14.35;12.80;;;;;;;26.97;39.16;100815.81;20999446;28;20037;-58
2023/06/11 18:33:20;;;;;;;14.20;12.80;;;;;;;26.99;39.15;100799.47;20997980;28;20106;-57
2023/06/11 18:43:22;;;;;;;15.80;14.20;;;;;;;26.98;39.15;100800.59;20996539;28;20040;-58
2023/06/11 18:53:23;;;;;;;14.15;12.75;;;;;;;26.99;39.32;100797.50;20996711;28;20113;-57
2023/06/11 19:03:25;;;;;;;14.95;13.50;;;;;;;27.02;39.58;100801.59;20995357;28;20032;-58
2023/06/11 19:13:26;;;;;;;15.02;13.52;;;;;;;27.01;39.83;100771.88;20994826;28;20128;-58
2023/06/11 19:23:27;;;;;;;14.60;13.20;;;;;;;27.02;39.95;100779.16;20994334;28;20442;-57
2023/06/11 19:33:29;;;;;;;15.40;13.80;;;;;;;27.06;39.83;100758.50;20993725;28;20045;-59
2023/06/11 19:43:30;;;;;;;15.57;13.90;;;;;;;27.07;39.76;100748.09;20994034;28;20037;-58
2023/06/11 19:53:33;;;;;;;14.73;13.30;;;;;;;27.08;40.04;100735.72;20992841;28;20452;-59
2023/06/11 20:03:35;;;;;;;15.00;13.52;;;;;;;27.05;39.88;100727.94;20991686;28;20041;-58
2023/06/11 20:13:43;;;;;;;15.88;14.27;;;;;;;27.04;39.94;100729.09;20991615;28;20048;-59
2023/06/11 20:23:47;;;;;;;15.23;13.63;;;;;;;27.12;40.19;100733.91;20991639;28;20041;-58
2023/06/11 20:33:51;;;;;;;15.57;13.98;;;;;;;27.13;40.05;100720.72;20990668;28;20036;-58
2023/06/11 20:43:53;;;;;;;15.75;14.15;;;;;;;27.14;40.29;100709.16;20991070;28;20029;-59
2023/06/11 20:53:54;;;;;;;15.98;14.38;;;;;;;27.15;40.01;100715.59;20989333;28;20491;-58
2023/06/11 21:03:56;;;;;;;15.82;14.27;;;;;;;27.13;40.04;100699.09;20990380;28;20024;-59
2023/06/11 21:13:58;;;;;;;15.30;13.80;;;;;;;27.06;40.43;100679.88;21001293;28;20070;-59
2023/06/11 21:24:01;;;;;;;15.52;13.93;;;;;;;27.18;40.51;100693.31;21003944;28;20036;-57
2023/06/11 21:34:03;;;;;;;16.08;14.40;;;;;;;27.19;40.37;100709.00;21003166;28;20044;-59
2023/06/11 21:44:04;;;;;;;15.88;14.27;;;;;;;27.21;40.23;100698.25;21002179;28;20047;-59
2023/06/11 21:54:06;;;;;;;15.23;13.73;;;;;;;27.21;40.21;100701.03;21001420;28;20056;-58
2023/06/11 22:04:09;;;;;;;15.43;13.82;;;;;;;27.22;40.33;100699.91;21001008;28;20443;-58
2023/06/11 22:14:11;;;;;;;14.93;13.43;;;;;;;27.24;40.37;100710.81;21000285;28;20407;-58
2023/06/11 22:24:12;;;;;;;14.80;13.30;;;;;;;27.25;40.45;100716.09;20998697;28;20541;-59
2023/06/11 22:34:14;;;;;;;15.40;13.80;;;;;;;27.26;40.50;100720.56;20994753;28;20060;-59
2023/06/11 22:44:16;;;;;;;15.43;13.93;;;;;;;27.25;40.52;100721.72;20997189;28;20032;-57
2023/06/11 22:54:17;;;;;;;15.52;13.93;;;;;;;27.28;40.66;100743.53;20995323;28;20055;-59
2023/06/11 23:04:20;;;;;;;15.20;13.70;;;;;;;27.30;40.76;100749.63;20995600;28;20484;-59
2023/06/11 23:14:21;;;;;;;16.20;14.55;;;;;;;27.29;40.60;100744.34;20993345;28;20450;-57
2023/06/11 23:24:26;;;;;;;15.23;13.63;;;;;;;27.32;40.45;100743.72;20994348;28;20032;-56
2023/06/11 23:34:28;;;;;;;15.75;14.00;;;;;;;27.35;40.71;100759.88;20993725;28;20078;-58
2023/06/11 23:44:32;;;;;;;15.75;14.07;;;;;;;27.35;40.96;100766.38;20993107;28;20480;-57
2023/06/11 23:54:33;;;;;;;16.00;14.40;;;;;;;27.35;40.69;100760.75;20992336;28;20052;-58
